Latest Weather Observations for Essendon Airport

IDV60901

Issued at 5:21 pm EST Sunday 31 July 2016 (issued every 10 minutes, with the page automatically refreshed every 10 minutes)

About weather observations | Map of Melbourne area stations | Latest observations for Melbourne area | Other Formats
Station Details ID: 086038 Name: ESSENDON AIRPORT Lat: -37.73 Lon: 144.91 Height: 78.4 m
Data from the previous 72 hours. | See also: Recent months at Essendon Airport
Date/Time
EST
Temp
°C
App
Temp
°C
Dew
Point
°C
Rel
Hum
%
Delta-T
°C
Wind Press
QNH
hPa
Press
MSL
hPa
Rain since
9am
mm
Dir  Spd
km/h
Gust
km/h
Spd
kts
Gust
kts
31/05:00pm 13.9 9.0 8.3 69 2.8 N 24 33 13 18 1014.1 1014.3 0.0
31/04:30pm 14.5 8.7 7.8 64 3.3 N 28 37 15 20 1013.9 1014.1 0.0
31/04:00pm 15.1 11.4 7.9 62 3.6 NNE 17 26 9 14 1013.9 1014.1 0.0
31/03:30pm 15.2 10.9 7.7 61 3.7 N 20 26 11 14 1014.0 1014.2 0.0
31/03:00pm 15.1 11.0 6.1 55 4.3 NNE 17 26 9 14 1014.2 1014.4 0.0
31/02:30pm 16.2 12.6 4.9 47 5.4 NNW 13 20 7 11 1014.4 1014.6 0.0
31/02:00pm 15.5 12.0 5.4 51 4.8 N 13 26 7 14 1014.7 1014.9 0.0
31/01:30pm 15.6 12.2 5.8 52 4.7 NNE 13 17 7 9 1014.8 1015.0 0.0
31/01:00pm 15.1 12.0 5.6 53 4.5 WNW 11 15 6 8 1015.3 1015.4 0.0
31/12:30pm 14.9 11.5 6.0 55 4.3 NW 13 17 7 9 1015.9 1016.0 0.0
31/12:00pm 15.0 12.0 5.8 54 4.4 NW 11 20 6 11 1016.2 1016.3 0.0
31/11:30am 14.4 10.9 7.2 62 3.5 WNW 15 20 8 11 1016.6 1016.7 0.0
31/11:00am 13.3 9.9 7.5 68 2.8 NW 15 19 8 10 1016.8 1016.9 0.0
31/10:30am 13.9 11.3 9.5 75 2.3 NNW 13 19 7 10 1017.0 1017.1 0.0
31/10:00am 13.4 11.0 10.0 80 1.8 NNW 13 19 7 10 1016.9 1017.0 0.0
31/09:30am 12.0 8.8 9.9 87 1.1 N 17 20 9 11 1017.0 1017.1 0.0
31/09:00am 11.4 8.6 10.0 91 0.7 N 15 19 8 10 1016.8 1016.9 0.8
31/08:30am 10.7 8.0 10.2 97 0.3 N 15 19 8 10 1016.6 1016.7 0.8
31/08:00am 9.7 6.4 9.4 98 0.1 N 17 20 9 11 1016.3 1016.4 0.8
31/07:30am 9.6 7.0 9.3 98 0.1 N 13 17 7 9 1015.9 1016.0 0.8
31/07:00am 9.7 6.3 9.1 96 0.3 N 17 22 9 12 1015.5 1015.6 0.8
31/06:30am 10.4 7.4 9.2 92 0.6 N 15 20 8 11 1014.9 1015.1 0.8
31/06:00am 10.7 7.4 9.5 92 0.6 N 17 24 9 13 1014.6 1014.8 0.8
31/05:30am 10.8 6.2 9.7 93 0.6 NNW 24 35 13 19 1014.1 1014.3 0.8
31/05:00am 10.4 6.3 10.1 98 0.2 NNW 22 32 12 17 1013.7 1013.9 0.8
31/04:30am 10.5 6.2 9.4 93 0.6 NNW 22 33 12 18 1013.7 1013.9 0.6
31/04:00am 11.3 5.7 8.7 84 1.3 NNW 28 39 15 21 1013.4 1013.6 0.0
31/03:30am 11.4 5.4 8.6 83 1.4 NNW 30 46 16 25 1013.2 1013.4 0.0
31/03:27am 11.4 5.7 8.4 82 1.5 NNW 28 46 15 25 1013.3 1013.5 0.0
31/03:00am 11.0 4.6 8.6 85 1.2 NNW 32 44 17 24 1012.9 1013.1 0.0
31/02:39am 10.9 4.3 8.5 85 1.2 N 33 52 18 28 1012.9 1013.1 0.0
31/02:30am 11.1 4.1 8.5 84 1.3 N 35 50 19 27 1012.9 1013.1 0.0
31/02:02am 11.5 4.5 8.5 82 1.5 N 35 54 19 29 1012.8 1013.0 0.0
31/02:00am 11.4 4.4 8.4 82 1.5 N 35 50 19 27 1012.8 1013.0 0.0
31/01:46am 11.5 4.1 8.5 82 1.5 N 37 56 20 30 1012.7 1012.9 0.0
31/01:30am 11.5 4.9 8.5 82 1.5 NNW 33 46 18 25 1013.6 1013.8 0.0
31/01:00am 11.3 3.9 8.5 83 1.4 NNW 37 56 20 30 1013.0 1013.2 0.0
31/12:33am 11.5 4.1 8.5 82 1.5 N 37 56 20 30 1013.2 1013.4 0.0
31/12:30am 11.6 3.9 8.5 81 1.5 N 39 56 21 30 1013.0 1013.2 0.0
31/12:00am 11.5 3.8 8.5 82 1.5 N 39 61 21 33 1012.9 1013.1 0.0
 
Date/Time
EST
Temp
°C
App
Temp
°C
Dew
Point
°C
Rel
Hum
%
Delta-T
°C
Wind Press
QNH
hPa
Press
MSL
hPa
Rain since
9am
mm
Dir  Spd
km/h
Gust
km/h
Spd
kts
Gust
kts
30/11:30pm 11.5 3.8 8.7 83 1.4 N 39 57 21 31 1013.6 1013.8 0.0
30/11:02pm 11.3 3.6 8.7 84 1.3 N 39 57 21 31 1013.5 1013.7 0.0
30/11:00pm 11.3 3.6 8.7 84 1.3 N 39 54 21 29 1013.7 1013.9 0.0
30/10:41pm 11.3 4.0 8.9 85 1.2 N 37 57 20 31 1014.2 1014.4 0.0
30/10:30pm 11.1 4.2 8.7 85 1.2 N 35 50 19 27 1014.4 1014.6 0.0
30/10:00pm 11.5 3.8 8.5 82 1.5 N 39 57 21 31 1014.9 1015.1 0.0
30/09:35pm 11.6 5.2 8.6 82 1.5 N 32 52 17 28 1014.7 1014.9 0.0
30/09:30pm 11.5 5.1 8.7 83 1.4 N 32 46 17 25 1014.8 1015.0 0.0
30/09:00pm 11.3 3.6 8.5 83 1.4 N 39 59 21 32 1013.7 1013.9 0.0
30/08:30pm 11.5 3.8 8.5 82 1.5 N 39 57 21 31 1013.4 1013.6 0.0
30/08:00pm 11.5 2.8 8.4 81 1.5 N 44 65 24 35 1013.3 1013.5 0.0
30/07:30pm 11.3 4.7 8.5 83 1.4 N 33 54 18 29 1014.5 1014.7 0.0
30/07:06pm 11.3 5.6 8.5 83 1.4 N 28 48 15 26 1014.8 1015.0 0.0
30/07:00pm 11.3 4.9 8.5 83 1.4 N 32 46 17 25 1014.9 1015.1 0.0
30/06:33pm 11.5 4.1 8.4 81 1.5 N 37 56 20 30 1014.8 1015.0 0.0
30/06:30pm 11.4 3.6 8.3 81 1.5 N 39 54 21 29 1014.6 1014.8 0.0
30/06:00pm 11.4 4.4 8.3 81 1.5 N 35 56 19 30 1014.1 1014.3 0.0
30/05:39pm 11.3 3.1 8.2 81 1.5 N 41 59 22 32 1014.2 1014.4 0.0
30/05:30pm 11.2 3.4 8.2 82 1.5 N 39 54 21 29 1013.9 1014.1 0.0
30/05:00pm 11.2 4.6 8.4 83 1.4 N 33 48 18 26 1014.5 1014.7 0.0
30/04:46pm 11.3 4.6 8.3 82 1.5 N 33 52 18 28 1014.5 1014.7 0.0
30/04:30pm 11.5 5.8 8.5 82 1.5 N 28 44 15 24 1015.5 1015.6 0.0
30/04:00pm 11.6 5.5 8.3 80 1.6 N 30 43 16 23 1015.6 1015.7 0.0
30/03:37pm 11.6 5.6 8.6 82 1.5 N 30 48 16 26 1016.1 1016.2 0.0
30/03:30pm 11.5 5.5 8.5 82 1.5 N 30 44 16 24 1016.1 1016.2 0.0
30/03:07pm 11.3 4.4 8.7 84 1.3 N 35 54 19 29 1016.3 1016.4 0.0
30/03:00pm 11.5 5.1 8.7 83 1.4 N 32 46 17 25 1016.5 1016.6 0.0
30/02:30pm 12.2 5.3 8.9 80 1.7 N 35 54 19 29 1016.1 1016.2 0.0
30/02:00pm 12.3 5.1 9.1 81 1.6 N 37 56 20 30 1016.9 1017.0 0.0
30/01:53pm 12.2 5.3 8.9 80 1.7 N 35 56 19 30 1016.9 1017.0 0.0
30/01:30pm 12.3 5.1 9.1 81 1.6 N 37 52 20 28 1017.2 1017.3 0.0
30/01:00pm 13.0 7.2 9.4 79 1.8 N 30 48 16 26 1017.7 1017.8 0.0
30/12:47pm 13.1 7.3 9.4 78 1.9 N 30 48 16 26 1018.2 1018.3 0.0
30/12:30pm 13.1 7.8 9.7 80 1.7 N 28 43 15 23 1018.8 1018.9 0.0
30/12:00pm 12.9 6.7 9.5 80 1.7 N 32 44 17 24 1019.0 1019.1 0.0
30/11:30am 13.0 6.7 9.8 81 1.6 N 33 44 18 24 1019.1 1019.2 0.0
30/11:00am 12.4 6.1 9.6 83 1.4 N 33 48 18 26 1019.7 1019.8 0.0
30/10:30am 12.6 6.5 9.6 82 1.5 N 32 46 17 25 1019.9 1020.0 0.0
30/10:00am 12.4 7.5 9.8 84 1.3 N 26 37 14 20 1020.4 1020.5 0.0
30/09:30am 11.8 6.5 9.9 88 1.0 N 28 41 15 22 1020.6 1020.7 0.0
30/09:00am 10.8 5.8 9.6 92 0.6 N 26 39 14 21 1020.7 1020.8 2.4
30/08:30am 10.4 6.6 9.9 97 0.3 N 20 33 11 18 1020.7 1020.8 2.4
30/08:00am 9.7 6.0 9.6 99 0.0 N 19 24 10 13 1020.7 1020.8 2.4
30/07:30am 9.0 5.1 8.7 98 0.1 N 19 28 10 15 1020.9 1021.0 2.4
30/07:00am 8.9 4.8 8.8 99 0.0 N 20 26 11 14 1021.1 1021.2 2.4
30/06:30am 8.5 6.0 8.4 99 0.0 N 11 15 6 8 1021.1 1021.2 2.4
30/06:00am 8.8 5.7 8.7 99 0.0 N 15 20 8 11 1021.1 1021.2 2.4
30/05:30am 8.7 5.9 8.6 99 0.0 N 13 17 7 9 1021.2 1021.3 2.4
30/05:00am 9.5 5.8 9.4 99 0.0 N 19 24 10 13 1021.2 1021.3 2.4
30/04:30am 9.7 6.8 9.6 99 0.1 N 15 20 8 11 1021.1 1021.2 2.4
30/04:00am 9.7 6.4 9.6 99 0.0 N 17 20 9 11 1021.1 1021.2 2.4
30/03:30am 9.5 6.2 9.4 99 0.0 N 17 20 9 11 1021.0 1021.1 2.4
30/03:00am 9.3 5.9 9.2 99 0.0 N 17 20 9 11 1021.2 1021.3 2.4
30/02:30am 8.7 5.5 8.6 99 0.0 N 15 17 8 9 1021.6 1021.7 2.4
30/02:00am 8.4 5.5 8.3 99 0.0 N 13 15 7 8 1021.7 1021.8 2.4
30/01:30am 8.6 5.4 8.5 99 0.0 N 15 19 8 10 1021.8 1021.9 2.4
30/01:00am 8.9 6.5 8.8 99 0.0 NNW 11 13 6 7 1021.8 1021.9 2.4
30/12:30am 9.0 6.7 8.9 99 0.0 NNW 11 13 6 7 1021.8 1021.9 2.4
30/12:00am 9.5 7.7 9.4 99 0.0 NNW 9 13 5 7 1021.9 1022.0 2.4
 
Date/Time
EST
Temp
°C
App
Temp
°C
Dew
Point
°C
Rel
Hum
%
Delta-T
°C
Wind Press
QNH
hPa
Press
MSL
hPa
Rain since
9am
mm
Dir  Spd
km/h
Gust
km/h
Spd
kts
Gust
kts
29/11:30pm 9.4 7.2 9.4 100 0.0 N 11 13 6 7 1022.0 1022.1 2.4
29/11:00pm 9.5 6.9 9.5 100 0.0 N 13 15 7 8 1022.0 1022.1 2.4
29/10:30pm 8.9 6.6 8.9 100 0.0 NNW 11 13 6 7 1022.0 1022.1 2.4
29/10:00pm 9.4 6.4 9.4 100 0.0 NNW 15 17 8 9 1022.0 1022.1 2.4
29/09:30pm 9.6 7.1 9.6 100 0.0 NNW 13 15 7 8 1021.9 1022.0 2.4
29/09:00pm 9.5 7.7 9.5 100 0.0 N 9 11 5 6 1021.8 1021.9 2.4
29/08:30pm 10.1 8.5 10.1 100 0.0 NNW 9 11 5 6 1021.8 1021.9 2.4
29/08:00pm 9.9 8.2 9.9 100 0.0 N 9 11 5 6 1021.8 1021.9 2.4
29/07:30pm 10.3 8.7 10.1 99 0.1 NNW 9 13 5 7 1021.5 1021.6 2.4
29/07:00pm 11.3 10.3 11.1 99 0.1 NNW 7 9 4 5 1021.2 1021.3 2.4
29/06:30pm 11.6 9.6 11.4 99 0.1 NW 13 15 7 8 1020.9 1021.0 2.4
29/06:00pm 11.9 9.2 11.6 98 0.2 NW 17 22 9 12 1020.5 1020.6 2.4
29/05:33pm 11.8 9.5 11.6 99 0.1 NW 15 20 8 11 1020.4 1020.5 2.4
29/05:30pm 11.8 9.5 11.6 99 0.1 NW 15 20 8 11 1020.4 1020.5 2.4
29/05:20pm 11.9 8.8 11.7 99 0.1 NW 19 30 10 16 1020.4 1020.5 2.2
29/05:00pm 11.7 9.3 11.5 99 0.1 NNW 15 26 8 14 1020.2 1020.3 2.0
29/04:32pm 11.8 9.5 11.6 99 0.1 W 15 20 8 11 1020.1 1020.2 1.6
29/04:30pm 11.8 9.5 11.6 99 0.1 W 15 20 8 11 1020.1 1020.2 1.6
29/04:11pm 12.2 7.8 10.4 89 0.9 WSW 24 33 13 18 1020.2 1020.3 0.8
29/04:00pm 13.5 10.2 9.6 77 2.0 WNW 17 32 9 17 1019.7 1019.8 0.0
29/03:30pm 14.3 10.3 8.9 70 2.7 WNW 20 30 11 16 1019.5 1019.6 0.0
29/03:00pm 14.5 12.2 10.3 76 2.2 NNW 13 19 7 10 1019.4 1019.5 0.0
29/02:30pm 13.6 10.7 9.8 78 2.0 N 15 19 8 10 1019.4 1019.5 0.0
29/02:00pm 13.1 9.9 9.9 81 1.6 NNW 17 24 9 13 1019.5 1019.6 0.0
29/01:30pm 12.3 9.0 9.7 84 1.3 NNW 17 28 9 15 1019.9 1020.0 0.0
29/01:00pm 13.1 9.0 8.6 74 2.3 NNW 20 32 11 17 1020.0 1020.1 0.0
29/12:30pm 13.0 8.5 8.5 74 2.3 NNW 22 35 12 19 1020.2 1020.3 0.0
29/12:00pm 13.3 8.0 8.6 73 2.4 NNW 26 39 14 21 1020.5 1020.6 0.0
29/11:30am 13.1 7.8 8.6 74 2.3 NNW 26 39 14 21 1020.8 1020.9 0.0
29/11:00am 13.6 9.6 9.1 74 2.3 NNW 20 30 11 16 1020.7 1020.8 0.0
29/10:30am 12.3 7.9 9.1 81 1.6 N 22 32 12 17 1021.1 1021.2 0.0
29/10:00am 12.1 6.9 8.8 80 1.6 N 26 33 14 18 1021.1 1021.2 0.0
29/09:30am 11.6 6.7 8.5 81 1.5 N 24 30 13 16 1021.2 1021.3 0.0
29/09:00am 10.6 5.7 8.4 86 1.1 N 24 35 13 19 1021.3 1021.4 0.0
29/08:30am 10.2 5.2 8.0 86 1.1 N 24 33 13 18 1021.2 1021.3 0.0
29/08:00am 9.8 4.7 7.7 87 1.0 N 24 35 13 19 1021.1 1021.2 0.0
29/07:30am 9.7 4.6 7.6 87 1.0 N 24 35 13 19 1020.9 1021.0 0.0
29/07:00am 9.5 4.4 7.6 88 0.9 N 24 33 13 18 1020.8 1020.9 0.0
29/06:30am 9.9 4.0 7.7 86 1.1 N 28 37 15 20 1020.8 1020.9 0.0
29/06:00am 9.8 5.0 7.2 84 1.2 N 22 30 12 16 1020.7 1020.8 0.0
29/05:30am 9.6 5.2 7.2 85 1.1 N 20 32 11 17 1020.9 1021.0 0.0
29/05:00am 9.9 5.6 7.2 83 1.3 NNW 19 30 10 16 1021.2 1021.3 0.0
29/04:30am 9.9 5.4 7.0 82 1.4 N 20 30 11 16 1020.9 1021.0 0.0
29/04:00am 9.9 5.0 6.8 81 1.5 N 22 30 12 16 1020.8 1020.9 0.0
29/03:30am 9.7 5.4 6.8 82 1.4 N 19 26 10 14 1020.9 1021.0 0.0
29/03:00am 9.9 5.4 6.8 81 1.5 N 20 26 11 14 1021.2 1021.3 0.0
29/02:30am 10.1 5.8 6.8 80 1.6 N 19 26 10 14 1021.6 1021.7 0.0
29/02:00am 10.3 5.8 7.0 80 1.6 N 20 28 11 15 1021.5 1021.6 0.0
29/01:30am 10.4 6.2 7.6 83 1.3 N 19 24 10 13 1021.9 1022.0 0.0
29/01:00am 10.5 6.3 7.6 82 1.4 N 19 26 10 14 1022.2 1022.4 0.0
29/12:30am 10.5 6.1 7.6 82 1.4 N 20 26 11 14 1022.1 1022.3 0.0
29/12:00am 10.8 6.4 7.5 80 1.6 NNW 20 28 11 15 1022.3 1022.5 0.0
 
Date/Time
EST
Temp
°C
App
Temp
°C
Dew
Point
°C
Rel
Hum
%
Delta-T
°C
Wind Press
QNH
hPa
Press
MSL
hPa
Rain since
9am
mm
Dir  Spd
km/h
Gust
km/h
Spd
kts
Gust
kts
28/11:30pm 10.4 6.2 7.6 83 1.3 N 19 24 10 13 1022.4 1022.6 0.0
28/11:00pm 9.9 6.1 7.5 85 1.1 N 17 22 9 12 1022.9 1023.1 0.0
28/10:30pm 9.7 5.5 7.5 86 1.1 N 19 24 10 13 1023.0 1023.2 0.0
28/10:00pm 10.1 5.7 7.3 83 1.3 N 20 28 11 15 1023.1 1023.3 0.0
28/09:30pm 10.3 5.9 7.4 82 1.4 N 20 28 11 15 1023.1 1023.3 0.0
28/09:00pm 11.0 7.1 7.3 78 1.8 N 17 24 9 13 1023.3 1023.5 0.0
28/08:30pm 11.3 7.1 7.4 77 1.9 N 19 26 10 14 1023.3 1023.5 0.0
28/08:00pm 11.4 6.6 7.3 76 2.0 N 22 30 12 16 1023.3 1023.5 0.0
28/07:30pm 11.7 7.3 7.2 74 2.2 N 20 30 11 16 1023.3 1023.5 0.0
28/07:00pm 11.7 7.7 6.8 72 2.3 N 17 22 9 12 1023.4 1023.6 0.0
28/06:30pm 11.8 7.4 7.3 74 2.2 N 20 28 11 15 1023.2 1023.4 0.0
28/06:00pm 12.3 8.3 6.8 69 2.6 NNW 17 26 9 14 1022.7 1022.9 0.0
28/05:30pm 12.6 9.1 7.1 69 2.7 NNW 15 22 8 12 1022.7 1022.9 0.0

Latest Capital City Observations: Canberra | Sydney | Melbourne | Brisbane | Adelaide | Perth | Hobart | Darwin

Other Formats:

Comma delimited format used in spreadsheet applications
http://www.bom.gov.au/fwo/IDV60901/IDV60901.95866.axf

JavaScript Object Notation format (JSON) in row-major order
http://www.bom.gov.au/fwo/IDV60901/IDV60901.95866.json